createdAt,value
2019-01-06T06:36:01.237Z,0.1
2019-01-06T06:38:00.909Z,0.2
2019-01-06T06:39:00.912Z,0.3
2019-01-06T06:41:01.520Z,0.4
2019-01-06T06:42:00.908Z,0.5
2019-01-06T06:44:00.914Z,0.6
2019-01-06T06:45:00.950Z,0.7
2019-01-06T06:46:01.057Z,0.8
2019-01-06T06:47:00.911Z,0.9
2019-01-06T06:48:00.912Z,1.1
2019-01-06T06:49:00.911Z,1.2
2019-01-06T06:50:00.930Z,1.4
2019-01-06T06:51:01.112Z,1.5
2019-01-06T06:52:00.911Z,1.7
2019-01-06T06:53:00.911Z,1.9
2019-01-06T06:54:01.823Z,2.2
2019-01-06T06:55:00.913Z,2.5
2019-01-06T06:56:01.172Z,2.9
2019-01-06T06:57:00.913Z,3.4
2019-01-06T06:58:00.913Z,3.9
2019-01-06T06:59:00.912Z,4.6
2019-01-06T07:00:00.970Z,5.3
2019-01-06T07:01:01.062Z,6.1
2019-01-06T07:02:00.917Z,7.1
2019-01-06T07:03:00.915Z,8.2
2019-01-06T07:04:00.923Z,9.5
2019-01-06T07:05:00.915Z,10.9
2019-01-06T07:06:01.150Z,12.5
2019-01-06T07:07:02.241Z,14.2
2019-01-06T07:08:01.516Z,16.1
2019-01-06T07:09:00.917Z,18.3
2019-01-06T07:10:00.920Z,20.9
2019-01-06T07:11:01.320Z,23.8
2019-01-06T07:12:00.920Z,27.3
2019-01-06T07:13:00.920Z,31.3
2019-01-06T07:14:00.920Z,36.3
2019-01-06T07:15:00.919Z,42.4
2019-01-06T07:16:01.083Z,49.8
2019-01-06T07:17:00.923Z,58.3
2019-01-06T07:18:00.924Z,67.4
2019-01-06T07:19:00.923Z,77.6
2019-01-06T07:20:00.920Z,89.5
2019-01-06T07:21:01.065Z,103.7
2019-01-06T07:22:00.926Z,119.9
2019-01-06T07:23:00.922Z,137.9
2019-01-06T07:24:02.166Z,157.9
2019-01-06T07:25:00.928Z,180.2
2019-01-06T07:26:01.069Z,204.6
2019-01-06T07:27:00.950Z,231.3
2019-01-06T07:28:00.923Z,260.5
2019-01-06T07:29:00.922Z,292.4
2019-01-06T07:30:00.934Z,327.8
2019-01-06T07:31:01.134Z,367.9
2019-01-06T07:32:00.923Z,409.3
2019-01-06T07:33:00.923Z,452.5
2019-01-06T07:34:00.990Z,499.0
2019-01-06T07:35:00.961Z,551.5
2019-01-06T07:36:01.212Z,608.5
2019-01-06T07:37:00.925Z,669.2
2019-01-06T07:38:00.947Z,734.7
2019-01-06T07:39:00.927Z,803.9
2019-01-06T07:40:00.942Z,876.9
2019-01-06T07:41:01.863Z,950.1
2019-01-06T07:42:00.927Z,1022.4
2019-01-06T07:43:01.153Z,1095.5
2019-01-06T07:44:00.931Z,1170.0
2019-01-06T07:45:00.931Z,1243.6
2019-01-06T07:46:02.693Z,1314.3
2019-01-06T07:47:00.978Z,1387.9
2019-01-06T07:48:00.935Z,1465.7
2019-01-06T07:49:00.931Z,1546.7
2019-01-06T07:50:00.979Z,1626.8
2019-01-06T07:51:01.101Z,1706.8
2019-01-06T07:52:00.937Z,1788.8
2019-01-06T07:53:00.952Z,1872.4
2019-01-06T07:54:00.938Z,1963.4
2019-01-06T07:55:00.937Z,2063.5
2019-01-06T07:56:01.077Z,2173.1
2019-01-06T07:57:00.933Z,2290.9
2019-01-06T07:58:00.934Z,2416.4
2019-01-06T07:59:00.935Z,2546.7
2019-01-06T08:00:00.932Z,2682.3
2019-01-06T08:01:01.088Z,2821.3
2019-01-06T08:02:00.935Z,2961.7
2019-01-06T08:03:00.965Z,3102.7
2019-01-06T08:04:00.937Z,3243.9
2019-01-06T08:05:00.940Z,3393.0
2019-01-06T08:06:01.075Z,3536.3
2019-01-06T08:07:00.933Z,3668.3
2019-01-06T08:08:00.936Z,3796.3
2019-01-06T08:09:00.940Z,3916.6
2019-01-06T08:10:02.168Z,4020.3
2019-01-06T08:11:01.085Z,4106.5
2019-01-06T08:12:00.936Z,4185.5
2019-01-06T08:13:00.969Z,4264.2
2019-01-06T08:14:00.966Z,4348.6
2019-01-06T08:15:00.936Z,4434.5
2019-01-06T08:16:01.083Z,4523.4
2019-01-06T08:17:00.935Z,4613.2
2019-01-06T08:18:01.318Z,4698.5
2019-01-06T08:19:00.947Z,4778.2
2019-01-06T08:20:00.937Z,4847.9
2019-01-06T08:21:01.080Z,4918.0
2019-01-06T08:22:00.940Z,4998.5
2019-01-06T08:23:02.262Z,5082.9
2019-01-06T08:24:00.941Z,5167.9
2019-01-06T08:25:00.943Z,5255.9
2019-01-06T08:26:01.087Z,5354.8
2019-01-06T08:27:00.951Z,5467.1
2019-01-06T08:28:00.944Z,5562.0
2019-01-06T08:29:00.942Z,5633.5
2019-01-06T08:30:00.942Z,5694.1
2019-01-06T08:31:01.369Z,5759.3
2019-01-06T08:32:00.942Z,5839.3
2019-01-06T08:33:00.941Z,5945.3
2019-01-06T08:34:00.942Z,6061.0
2019-01-06T08:35:01.194Z,6199.0
2019-01-06T08:36:01.082Z,6382.7
2019-01-06T08:37:00.940Z,6592.5
2019-01-06T08:38:00.955Z,6801.9
2019-01-06T08:39:00.943Z,6987.1
2019-01-06T08:40:00.942Z,7132.7
2019-01-06T08:41:01.083Z,7251.4
2019-01-06T08:42:00.945Z,7354.1
2019-01-06T08:43:00.972Z,7437.9
2019-01-06T08:44:00.984Z,7505.6
2019-01-06T08:45:00.944Z,7598.9
2019-01-06T08:46:01.086Z,7720.2
2019-01-06T08:47:00.946Z,7847.6
2019-01-06T08:48:01.056Z,7962.2
2019-01-06T08:49:00.948Z,8081.6
2019-01-06T08:50:01.001Z,8192.3
2019-01-06T08:51:01.112Z,8239.9
2019-01-06T08:52:00.945Z,8254.2
2019-01-06T08:53:01.201Z,8267.7
2019-01-06T08:54:00.951Z,8301.5
2019-01-06T08:55:00.956Z,8409.2
2019-01-06T08:56:01.087Z,8591.9
2019-01-06T08:57:00.948Z,8789.0
2019-01-06T08:58:00.954Z,8988.7
2019-01-06T08:59:00.950Z,9210.0
2019-01-06T09:00:00.952Z,9437.3
2019-01-06T09:01:01.093Z,9652.4
2019-01-06T09:02:00.950Z,9859.1
2019-01-06T09:03:00.950Z,10037.8
2019-01-06T09:04:00.953Z,10183.8
2019-01-06T09:05:00.983Z,10327.3
2019-01-06T09:06:01.161Z,10481.2
2019-01-06T09:07:00.949Z,10596.9
2019-01-06T09:08:00.953Z,10704.5
2019-01-06T09:09:01.707Z,10849.1
2019-01-06T09:10:00.979Z,10981.3
2019-01-06T09:11:01.119Z,11080.4
2019-01-06T09:12:00.955Z,11188.3
2019-01-06T09:13:00.953Z,11326.3
2019-01-06T09:14:00.953Z,11467.5
2019-01-06T09:15:00.953Z,11553.5
2019-01-06T09:16:01.161Z,11589.1
2019-01-06T09:17:00.955Z,11582.8
2019-01-06T09:18:01.739Z,11581.4
2019-01-06T09:19:00.955Z,11598.7
2019-01-06T09:20:00.983Z,11616.9
2019-01-06T09:21:01.159Z,11637.7
2019-01-06T09:22:00.956Z,11706.9
2019-01-06T09:23:01.024Z,11812.9
2019-01-06T09:24:00.980Z,11952.3
2019-01-06T09:25:00.955Z,12168.2
2019-01-06T09:26:01.097Z,12447.3
2019-01-06T09:27:00.955Z,12766.5
2019-01-06T09:28:00.956Z,13141.6
2019-01-06T09:29:00.961Z,13565.5
2019-01-06T09:30:04.209Z,14012.5
2019-01-06T09:31:01.227Z,14417.2
2019-01-06T09:32:02.367Z,14804.0
2019-01-06T09:33:00.961Z,15225.7
2019-01-06T09:34:00.994Z,15709.6
2019-01-06T09:35:00.965Z,16193.0
2019-01-06T09:36:01.297Z,16700.5
2019-01-06T09:37:00.963Z,17231.4
2019-01-06T09:38:00.965Z,17748.8
2019-01-06T09:39:00.970Z,18216.0
2019-01-06T09:40:00.962Z,18594.0
2019-01-06T09:41:01.106Z,18853.9
2019-01-06T09:42:00.963Z,18943.9
2019-01-06T09:43:00.963Z,18869.5
2019-01-06T09:44:00.965Z,18670.7
2019-01-06T09:45:00.970Z,18438.6
2019-01-06T09:46:01.108Z,18265.2
2019-01-06T09:47:01.939Z,18164.4
2019-01-06T09:48:00.966Z,18100.3
2019-01-06T09:49:00.977Z,18040.7
2019-01-06T09:50:00.970Z,18014.5
2019-01-06T09:51:01.235Z,18017.2
2019-01-06T09:52:00.969Z,18009.8
2019-01-06T09:53:01.024Z,17963.3
2019-01-06T09:54:00.971Z,17851.7
2019-01-06T09:55:00.968Z,17732.7
2019-01-06T09:56:01.153Z,17727.5
2019-01-06T09:57:00.968Z,17858.3
2019-01-06T09:58:00.968Z,18054.1
2019-01-06T09:59:00.970Z,18278.8
2019-01-06T10:00:00.974Z,18511.9
2019-01-06T10:01:01.290Z,18766.8
2019-01-06T10:02:00.969Z,19066.8
2019-01-06T10:03:00.975Z,19386.9
2019-01-06T10:04:00.970Z,19666.1
2019-01-06T10:05:00.971Z,19937.7
2019-01-06T10:06:01.149Z,20169.2
2019-01-06T10:07:00.978Z,20320.8
2019-01-06T10:08:00.980Z,20473.9
2019-01-06T10:09:02.655Z,20639.3
2019-01-06T10:10:01.101Z,20735.5
2019-01-06T10:11:01.228Z,20721.9
2019-01-06T10:12:00.975Z,20679.3
2019-01-06T10:13:00.978Z,20697.9
2019-01-06T10:14:02.656Z,20838.2
2019-01-06T10:15:00.975Z,21092.1
2019-01-06T10:16:01.152Z,21315.0
2019-01-06T10:17:00.975Z,21397.9
2019-01-06T10:18:00.978Z,21381.1
2019-01-06T10:19:00.976Z,21341.6
2019-01-06T10:20:00.996Z,21227.1
2019-01-06T10:21:01.179Z,21141.1
2019-01-06T10:22:00.980Z,21220.9
2019-01-06T10:23:01.014Z,21358.3
2019-01-06T10:24:00.980Z,21536.8
2019-01-06T10:25:00.979Z,21851.6
2019-01-06T10:26:01.157Z,22218.1
2019-01-06T10:27:01.043Z,22540.9
2019-01-06T10:28:00.978Z,22803.1
2019-01-06T10:29:01.044Z,22913.9
2019-01-06T10:30:00.980Z,22874.9
2019-01-06T10:31:01.154Z,22781.9
2019-01-06T10:32:00.979Z,22775.7
2019-01-06T10:33:00.982Z,22852.8
2019-01-06T10:34:00.981Z,23044.9
2019-01-06T10:35:00.980Z,23434.0
2019-01-06T10:36:01.156Z,23973.3
2019-01-06T10:37:00.984Z,24582.9
2019-01-06T10:38:00.990Z,25351.8
2019-01-06T10:39:00.983Z,26280.7
2019-01-06T10:40:00.983Z,27246.3
2019-01-06T10:41:02.190Z,28233.9
2019-01-06T10:42:01.020Z,29176.7
2019-01-06T10:43:01.088Z,30081.5
2019-01-06T10:44:00.983Z,31126.9
2019-01-06T10:45:00.983Z,32398.8
2019-01-06T10:46:01.125Z,33747.5
2019-01-06T10:47:00.985Z,35036.5
2019-01-06T10:48:00.984Z,36206.2
2019-01-06T10:49:00.985Z,37306.0
2019-01-06T10:50:00.985Z,38257.9
2019-01-06T10:51:01.192Z,38984.4
2019-01-06T10:52:00.988Z,39537.4
2019-01-06T10:53:00.991Z,39759.3
2019-01-06T10:54:01.114Z,39738.9
2019-01-06T10:55:00.985Z,39565.1
2019-01-06T10:56:02.249Z,39278.3
2019-01-06T10:57:00.987Z,39125.6
2019-01-06T10:58:00.986Z,39213.8
2019-01-06T10:59:00.992Z,39369.3
2019-01-06T11:00:00.996Z,39407.0
2019-01-06T11:01:01.135Z,39480.7
2019-01-06T11:02:00.989Z,39713.7
2019-01-06T11:03:00.993Z,40507.9
2019-01-06T11:04:00.990Z,40989.5
2019-01-06T11:05:00.987Z,41150.9
2019-01-06T11:06:01.134Z,41199.7
2019-01-06T11:07:00.990Z,41269.7
2019-01-06T11:08:00.989Z,41444.9
2019-01-06T11:09:00.989Z,41625.9
2019-01-06T11:10:01.090Z,41802.9
2019-01-06T11:11:01.196Z,41935.3
2019-01-06T11:12:01.024Z,41986.6
2019-01-06T11:13:02.026Z,41780.9
2019-01-06T11:14:00.992Z,41351.5
2019-01-06T11:15:00.999Z,40911.8
2019-01-06T11:16:01.139Z,40383.1
2019-01-06T11:17:01.023Z,39739.3
2019-01-06T11:18:01.059Z,38496.7
2019-01-06T11:19:00.991Z,37468.5
2019-01-06T11:20:00.998Z,36724.5
2019-01-06T11:21:01.296Z,36135.7
2019-01-06T11:22:00.994Z,35572.0
2019-01-06T11:23:01.003Z,34998.7
2019-01-06T11:24:00.994Z,34476.7
2019-01-06T11:25:01.220Z,34063.0
2019-01-06T11:26:01.138Z,33871.0
2019-01-06T11:27:00.996Z,33889.3
2019-01-06T11:28:00.998Z,34082.7
2019-01-06T11:29:00.994Z,34391.1
2019-01-06T11:30:02.173Z,34804.7
2019-01-06T11:31:01.144Z,35301.2
2019-01-06T11:32:00.994Z,35747.5
2019-01-06T11:33:01.000Z,36292.2
2019-01-06T11:34:00.999Z,37188.9
2019-01-06T11:35:01.002Z,38204.1
2019-01-06T11:36:01.137Z,39246.3
2019-01-06T11:37:01.028Z,40237.7
2019-01-06T11:38:00.995Z,41388.4
2019-01-06T11:39:06.009Z,42583.3
2019-01-06T11:40:00.999Z,43614.2
2019-01-06T11:41:07.806Z,44227.3
2019-01-06T11:42:01.025Z,44535.1
2019-01-06T11:43:01.009Z,44848.9
2019-01-06T11:44:00.999Z,45058.0
2019-01-06T11:45:01.062Z,45133.3
2019-01-06T11:46:01.151Z,44959.8
2019-01-06T11:47:06.005Z,44737.1
2019-01-06T11:48:00.998Z,44392.5
2019-01-06T11:49:01.000Z,43781.8
2019-01-06T11:50:01.005Z,43119.3
2019-01-06T11:51:01.169Z,42530.3
2019-01-06T11:52:00.998Z,42133.1
2019-01-06T11:53:01.001Z,41788.2
2019-01-06T11:54:00.999Z,41571.6
2019-01-06T11:55:01.161Z,41715.5
2019-01-06T11:56:01.146Z,41604.6
2019-01-06T11:57:01.000Z,41480.8
2019-01-06T11:58:01.001Z,41170.8
2019-01-06T11:59:01.001Z,40939.8
2019-01-06T12:00:02.340Z,40531.2
2019-01-06T12:01:01.146Z,39905.0
2019-01-06T12:02:01.005Z,39276.5
2019-01-06T12:03:01.004Z,38869.0
2019-01-06T12:04:01.005Z,38473.1
2019-01-06T12:05:01.007Z,38109.2
2019-01-06T12:06:01.214Z,37687.7
2019-01-06T12:07:01.013Z,37153.1
2019-01-06T12:08:06.008Z,36699.0
2019-01-06T12:09:01.006Z,36469.3
2019-01-06T12:10:01.007Z,36419.0
2019-01-06T12:11:01.152Z,37423.1
2019-01-06T12:12:01.010Z,38941.8
2019-01-06T12:13:01.008Z,40380.9
2019-01-06T12:14:01.046Z,41026.1
2019-01-06T12:15:01.037Z,41078.1
2019-01-06T12:16:01.150Z,41208.3
2019-01-06T12:17:01.010Z,41336.2
2019-01-06T12:18:01.011Z,41486.5
2019-01-06T12:19:01.012Z,41667.8
2019-01-06T12:20:01.011Z,41790.3
2019-01-06T12:21:01.154Z,42085.6
2019-01-06T12:22:01.014Z,42511.4
2019-01-06T12:23:01.011Z,42575.7
2019-01-06T12:24:01.014Z,42547.5
2019-01-06T12:25:01.013Z,42286.5
2019-01-06T12:26:01.160Z,41583.1
2019-01-06T12:27:01.015Z,40273.1
2019-01-06T12:28:01.017Z,38983.9
2019-01-06T12:29:06.022Z,38377.3
2019-01-06T12:30:01.017Z,38118.2
2019-01-06T12:31:01.285Z,37912.6
2019-01-06T12:32:01.018Z,37703.3
2019-01-06T12:33:01.044Z,37490.1
2019-01-06T12:34:01.017Z,36968.6
2019-01-06T12:35:01.016Z,36230.3
2019-01-06T12:36:01.186Z,35253.3
2019-01-06T12:37:01.020Z,34212.3
2019-01-06T12:38:01.071Z,33115.9
2019-01-06T12:39:01.016Z,31685.7
2019-01-06T12:40:01.018Z,30124.0
2019-01-06T12:41:01.160Z,28477.4
2019-01-06T12:42:01.020Z,26936.7
2019-01-06T12:43:01.015Z,25684.9
2019-01-06T12:44:01.021Z,24563.7
2019-01-06T12:45:01.020Z,23965.8
2019-01-06T12:46:01.159Z,23695.3
2019-01-06T12:47:01.022Z,23826.9
2019-01-06T12:48:01.025Z,23931.3
2019-01-06T12:49:01.020Z,23995.7
2019-01-06T12:50:01.061Z,24411.2
2019-01-06T12:51:01.292Z,24795.5
2019-01-06T12:52:01.020Z,24631.3
2019-01-06T12:53:01.022Z,24585.3
2019-01-06T12:54:01.026Z,24678.1
2019-01-06T12:55:06.029Z,24675.6
2019-01-06T12:56:01.251Z,24921.8
2019-01-06T12:57:01.023Z,25479.1
2019-01-06T12:58:01.026Z,25793.5
2019-01-06T12:59:00.992Z,25962.0
2019-01-06T13:00:01.365Z,25865.7
2019-01-06T13:01:01.168Z,26300.7
2019-01-06T13:02:01.024Z,26866.7
2019-01-06T13:03:01.023Z,27404.3
2019-01-06T13:04:01.027Z,28265.4
2019-01-06T13:05:01.028Z,29243.7
2019-01-06T13:06:01.165Z,31003.4
2019-01-06T13:07:01.027Z,32828.9
2019-01-06T13:08:01.746Z,34290.1
2019-01-06T13:09:01.051Z,35572.1
2019-01-06T13:10:01.025Z,36547.5
2019-01-06T13:11:01.235Z,36790.7
2019-01-06T13:12:01.026Z,36462.2
2019-01-06T13:13:01.026Z,36188.3
2019-01-06T13:14:01.026Z,36123.9
2019-01-06T13:15:01.029Z,36036.5
2019-01-06T13:16:01.167Z,35393.9
2019-01-06T13:17:01.027Z,34579.5
2019-01-06T13:18:01.030Z,33920.5
2019-01-06T13:19:01.054Z,33126.2
2019-01-06T13:20:01.027Z,32021.2
2019-01-06T13:21:01.233Z,30023.7
2019-01-06T13:22:01.034Z,28175.7
2019-01-06T13:23:01.033Z,26583.9
2019-01-06T13:24:01.037Z,25017.3
2019-01-06T13:25:01.035Z,23812.7
2019-01-06T13:26:01.174Z,22934.4
2019-01-06T13:27:01.034Z,22514.0
2019-01-06T13:28:01.038Z,22138.2
2019-01-06T13:29:06.034Z,21718.1
2019-01-06T13:30:01.037Z,21463.1
2019-01-06T13:31:01.175Z,21175.8
2019-01-06T13:32:01.142Z,20653.1
2019-01-06T13:33:01.037Z,19994.5
2019-01-06T13:34:01.034Z,19488.7
2019-01-06T13:35:01.034Z,19365.0
2019-01-06T13:36:01.175Z,19614.4
2019-01-06T13:37:01.033Z,20143.8
2019-01-06T13:38:01.034Z,20680.7
2019-01-06T13:39:01.036Z,21328.7
2019-01-06T13:40:01.034Z,22233.3
2019-01-06T13:41:02.905Z,23317.8
2019-01-06T13:42:01.636Z,24370.1
2019-01-06T13:43:01.040Z,25287.2
2019-01-06T13:44:01.037Z,26186.9
2019-01-06T13:45:01.036Z,26945.3
2019-01-06T13:46:01.192Z,27456.8
2019-01-06T13:47:01.034Z,27736.5
2019-01-06T13:48:01.035Z,27759.9
2019-01-06T13:49:01.038Z,27640.5
2019-01-06T13:50:01.038Z,27136.2
2019-01-06T13:51:01.186Z,26395.4
2019-01-06T13:52:01.037Z,25322.4
2019-01-06T13:53:01.041Z,24123.7
2019-01-06T13:54:01.035Z,22844.0
2019-01-06T13:55:01.037Z,21532.4
2019-01-06T13:56:01.270Z,20544.9
2019-01-06T13:57:01.035Z,20009.8
2019-01-06T13:58:01.036Z,19922.7
2019-01-06T13:59:02.185Z,20190.3
2019-01-06T14:00:01.039Z,20484.5
2019-01-06T14:01:01.245Z,20626.1
2019-01-06T14:02:01.040Z,20372.2
2019-01-06T14:03:01.066Z,20259.3
2019-01-06T14:04:01.079Z,20483.7
2019-01-06T14:05:01.066Z,20853.7
2019-01-06T14:06:01.182Z,21085.6
2019-01-06T14:07:01.045Z,21470.9
2019-01-06T14:08:01.041Z,22080.5
2019-01-06T14:09:01.040Z,22642.8
2019-01-06T14:10:01.038Z,22894.6
2019-01-06T14:11:01.465Z,22897.1
2019-01-06T14:12:01.151Z,22519.9
2019-01-06T14:13:01.041Z,21926.7
2019-01-06T14:14:01.042Z,20992.8
2019-01-06T14:15:01.048Z,20153.5
2019-01-06T14:16:01.182Z,19652.7
2019-01-06T14:17:01.043Z,19657.3
2019-01-06T14:18:01.045Z,19580.1
2019-01-06T14:19:01.042Z,19107.4
2019-01-06T14:20:06.047Z,18452.0
2019-01-06T14:21:01.183Z,17942.5
2019-01-06T14:22:01.044Z,17478.9
2019-01-06T14:23:01.044Z,17043.5
2019-01-06T14:24:01.047Z,16572.6
2019-01-06T14:25:01.044Z,16010.3
2019-01-06T14:26:01.300Z,15299.3
2019-01-06T14:27:01.043Z,14425.7
2019-01-06T14:28:01.044Z,13435.5
2019-01-06T14:29:01.047Z,12385.1
2019-01-06T14:30:01.043Z,11449.5
2019-01-06T14:31:01.218Z,10676.6
2019-01-06T14:32:01.044Z,10048.8
2019-01-06T14:33:01.046Z,9557.3
2019-01-06T14:34:01.048Z,9223.5
2019-01-06T14:35:01.049Z,9019.5
2019-01-06T14:36:01.269Z,8840.1
2019-01-06T14:37:01.050Z,8649.8
2019-01-06T14:38:01.045Z,8394.9
2019-01-06T14:39:01.047Z,8183.7
2019-01-06T14:40:01.049Z,8092.5
2019-01-06T14:41:02.362Z,8054.2
2019-01-06T14:42:01.046Z,8035.4
2019-01-06T14:43:01.047Z,8075.1
2019-01-06T14:44:01.046Z,8218.3
2019-01-06T14:45:01.049Z,8336.8
2019-01-06T14:46:01.208Z,8402.8
2019-01-06T14:47:01.075Z,8422.9
2019-01-06T14:48:01.052Z,8381.8
2019-01-06T14:49:01.048Z,8249.6
2019-01-06T14:50:01.050Z,8009.1
2019-01-06T14:51:01.190Z,7736.2
2019-01-06T14:52:01.060Z,7494.0
2019-01-06T14:53:01.048Z,7302.5
2019-01-06T14:54:02.365Z,7149.4
2019-01-06T14:55:01.050Z,7007.3
2019-01-06T14:56:01.223Z,6891.7
2019-01-06T14:57:01.055Z,6795.6
2019-01-06T14:58:01.054Z,6646.2
2019-01-06T14:59:01.053Z,6402.5
2019-01-06T15:00:01.053Z,6083.5
2019-01-06T15:01:01.193Z,5702.5
2019-01-06T15:02:01.055Z,5289.9
2019-01-06T15:03:01.054Z,4887.9
2019-01-06T15:04:01.054Z,4529.0
2019-01-06T15:05:01.058Z,4220.3
2019-01-06T15:06:01.199Z,3924.5
2019-01-06T15:07:01.054Z,3635.4
2019-01-06T15:08:01.057Z,3366.8
2019-01-06T15:09:01.059Z,3116.9
2019-01-06T15:10:01.057Z,2873.9
2019-01-06T15:11:02.365Z,2637.9
2019-01-06T15:12:01.058Z,2416.6
2019-01-06T15:13:01.059Z,2226.7
2019-01-06T15:14:01.062Z,2058.3
2019-01-06T15:15:01.061Z,1907.1
2019-01-06T15:16:01.210Z,1783.8
2019-01-06T15:17:01.060Z,1678.7
2019-01-06T15:18:01.063Z,1585.7
2019-01-06T15:19:01.226Z,1503.3
2019-01-06T15:20:01.059Z,1420.4
2019-01-06T15:21:01.201Z,1340.3
2019-01-06T15:22:01.059Z,1268.0
2019-01-06T15:23:01.061Z,1197.9
2019-01-06T15:24:01.089Z,1133.3
2019-01-06T15:25:01.058Z,1071.7
2019-01-06T15:26:01.269Z,1006.1
2019-01-06T15:27:01.093Z,934.8
2019-01-06T15:28:01.061Z,851.7
2019-01-06T15:29:01.071Z,765.0
2019-01-06T15:30:01.062Z,680.3
2019-01-06T15:31:01.204Z,602.1
2019-01-06T15:32:06.070Z,531.3
2019-01-06T15:33:01.065Z,468.7
2019-01-06T15:34:01.061Z,411.1
2019-01-06T15:35:01.061Z,360.3
2019-01-06T15:36:01.206Z,316.9
2019-01-06T15:37:02.264Z,277.7
2019-01-06T15:38:01.061Z,242.5
2019-01-06T15:39:01.062Z,211.9
2019-01-06T15:40:01.104Z,187.1
2019-01-06T15:41:01.202Z,167.5
2019-01-06T15:42:01.066Z,153.2
2019-01-06T15:43:01.062Z,141.7
2019-01-06T15:44:01.063Z,128.9
2019-01-06T15:45:01.063Z,117.1
2019-01-06T15:46:01.216Z,106.7
2019-01-06T15:47:01.071Z,97.1
2019-01-06T15:48:01.073Z,87.3
2019-01-06T15:49:01.070Z,78.4
2019-01-06T15:50:02.071Z,69.9
2019-01-06T15:51:01.220Z,61.6
2019-01-06T15:52:01.068Z,53.8
2019-01-06T15:53:01.070Z,47.4
2019-01-06T15:54:01.069Z,41.9
2019-01-06T15:55:01.069Z,36.6
2019-01-06T15:56:01.335Z,32.1
2019-01-06T15:57:01.071Z,28.0
2019-01-06T15:58:01.070Z,24.2
2019-01-06T15:59:01.071Z,21.1
2019-01-06T16:00:01.094Z,18.1
2019-01-06T16:01:01.310Z,15.6
2019-01-06T16:02:01.077Z,13.5
2019-01-06T16:03:01.074Z,11.8
2019-01-06T16:04:01.229Z,10.3
2019-01-06T16:05:01.076Z,9.1
2019-01-06T16:06:01.223Z,7.9
2019-01-06T16:07:02.150Z,6.9
2019-01-06T16:08:01.073Z,5.8
2019-01-06T16:09:01.081Z,4.9
2019-01-06T16:10:01.080Z,4.1
2019-01-06T16:11:01.839Z,3.4
2019-01-06T16:12:01.077Z,2.9
2019-01-06T16:13:01.050Z,2.5
2019-01-06T16:14:01.075Z,2.1
2019-01-06T16:15:01.075Z,1.9
2019-01-06T16:16:01.224Z,1.6
2019-01-06T16:17:01.081Z,1.3
2019-01-06T16:18:01.076Z,1.1
2019-01-06T16:19:01.078Z,1.0
2019-01-06T16:20:01.078Z,0.9
2019-01-06T16:21:01.221Z,0.7
2019-01-06T16:22:01.115Z,0.6
2019-01-06T16:23:01.083Z,0.5
2019-01-06T16:25:01.080Z,0.4
2019-01-06T16:26:01.222Z,0.3
2019-01-06T16:28:01.080Z,0.2
2019-01-06T16:29:01.083Z,0.1
2019-01-06T16:30:01.082Z,0.1
